Terminal Aerodrome Forecast
Issued by NWS Cleveland, OH

Home | Current Version | Previous Version | Graphics & Text | Print | Product List | Glossary Off
Versions: 1 2 3 4 5 6 7 8 9 10 11 12 13

895
FTUS41 KCLE 251120
TAFMFD
TAF
KMFD 251120Z 2512/2612 24006KT P6SM SCT060
     FM251500 26014G22KT P6SM SCT050
     FM252300 24007KT P6SM SCT050
     FM260800 24008KT P6SM BKN050=

USA.gov is the U.S. government's official web portal to all federal, state and local government web resources and services.